Time;durP1;ratioP1;P1;durP2;ratioP2;P2;SDS_P1;SDS_P2;PMS_P1;PMS_P2;Temp;Humidity;BMP_temperature;BMP_pressure;BME280_temperature;BME280_humidity;BME280_pressure;Samples;Min_cycle;Max_cycle;Signal;HPM_P1;HPM_P2
2021/01/05 00:00:35;;;;;;;9.80;6.70;;;3.10;99.90;;;;;;4961729;28;20081;-83
2021/01/05 00:03:00;;;;;;;12.82;7.22;;;3.20;99.90;;;;;;4962201;28;20062;-83
2021/01/05 00:05:26;;;;;;;10.85;6.78;;;3.20;99.90;;;;;;4953264;28;20062;-85
2021/01/05 00:07:52;;;;;;;14.88;6.75;;;3.20;99.90;;;;;;4950886;28;20127;-83
2021/01/05 00:10:19;;;;;;;11.50;7.00;;;3.20;99.90;;;;;;4981117;28;20027;-82
2021/01/05 00:12:45;;;;;;;11.27;6.97;;;3.20;99.90;;;;;;4946006;28;20038;-84
2021/01/05 00:15:12;;;;;;;14.75;7.70;;;3.10;99.90;;;;;;4960525;28;20038;-83
2021/01/05 00:17:38;;;;;;;14.38;8.02;;;3.20;99.90;;;;;;4959996;28;20026;-83
2021/01/05 00:20:22;;;;;;;16.23;7.55;;;3.20;99.90;;;;;;4959518;28;20388;-83
2021/01/05 00:22:48;;;;;;;9.43;7.00;;;3.30;99.90;;;;;;4976724;28;20030;-84
2021/01/05 00:25:16;;;;;;;10.02;6.65;;;3.20;99.90;;;;;;4975353;28;20039;-84
2021/01/05 00:27:42;;;;;;;9.98;6.47;;;3.20;99.90;;;;;;4975449;28;20058;-83
2021/01/05 00:30:11;;;;;;;9.85;7.00;;;3.20;99.90;;;;;;4977281;28;20378;-89
2021/01/05 00:32:40;;;;;;;13.18;7.03;;;3.20;99.90;;;;;;4959406;28;20037;-83
2021/01/05 00:35:06;;;;;;;10.90;6.20;;;3.10;99.90;;;;;;4959075;28;20039;-83
2021/01/05 00:37:32;;;;;;;9.70;6.55;;;3.20;99.90;;;;;;4991094;28;20034;-82
2021/01/05 00:39:57;;;;;;;9.05;6.53;;;3.20;99.90;;;;;;4943026;28;20039;-84
2021/01/05 00:42:23;;;;;;;12.00;6.50;;;3.20;99.90;;;;;;4958926;28;20425;-83
2021/01/05 00:44:48;;;;;;;12.45;7.00;;;3.20;99.90;;;;;;4958865;28;20035;-83
2021/01/05 00:47:14;;;;;;;9.00;5.80;;;3.20;99.90;;;;;;4958842;28;20090;-83
2021/01/05 00:49:40;;;;;;;13.45;6.28;;;3.20;99.90;;;;;;4959260;28;20464;-83
2021/01/05 00:52:05;;;;;;;12.27;6.70;;;3.20;99.90;;;;;;4975624;28;20038;-83
2021/01/05 00:54:31;;;;;;;11.75;6.78;;;3.20;99.90;;;;;;4958507;28;20046;-84
2021/01/05 00:57:00;;;;;;;8.50;6.22;;;3.20;99.90;;;;;;4976280;28;20528;-83
2021/01/05 00:59:26;;;;;;;11.13;6.32;;;3.20;99.90;;;;;;4959693;28;20103;-83
2021/01/05 01:01:53;;;;;;;10.07;6.35;;;3.20;99.90;;;;;;4958984;28;20421;-83
2021/01/05 01:04:18;;;;;;;12.68;6.30;;;3.20;99.90;;;;;;4959283;28;20034;-83
2021/01/05 01:06:44;;;;;;;11.13;5.88;;;3.20;99.90;;;;;;4958796;28;20086;-84
2021/01/05 01:09:10;;;;;;;12.02;5.70;;;3.20;99.90;;;;;;4943034;28;20037;-83
2021/01/05 01:11:37;;;;;;;12.02;6.70;;;3.20;99.90;;;;;;4958891;28;20544;-83
2021/01/05 01:14:04;;;;;;;9.60;5.63;;;3.20;99.90;;;;;;4960827;28;20045;-85
2021/01/05 01:16:30;;;;;;;9.77;6.00;;;3.20;99.90;;;;;;4959346;28;20046;-84
2021/01/05 01:18:56;;;;;;;7.72;6.00;;;3.30;99.90;;;;;;4959126;28;20034;-84
2021/01/05 01:21:22;;;;;;;12.48;6.50;;;3.20;99.90;;;;;;4942264;28;20034;-84
2021/01/05 01:23:47;;;;;;;12.30;6.20;;;3.20;99.90;;;;;;4942287;28;20088;-84
2021/01/05 01:26:13;;;;;;;10.25;6.63;;;3.20;99.90;;;;;;4941949;28;20508;-84
2021/01/05 01:28:40;;;;;;;9.20;5.78;;;3.20;99.90;;;;;;4975362;28;20107;-84
2021/01/05 01:31:06;;;;;;;9.45;5.65;;;3.30;99.90;;;;;;4942593;28;20031;-84
2021/01/05 01:33:32;;;;;;;11.05;6.13;;;3.30;99.90;;;;;;4957838;28;20037;-84
2021/01/05 01:35:57;;;;;;;12.65;6.10;;;3.30;99.90;;;;;;4974187;28;20050;-84
2021/01/05 01:38:23;;;;;;;9.68;6.60;;;3.30;99.90;;;;;;4957636;28;20026;-84
2021/01/05 01:40:49;;;;;;;9.48;5.78;;;3.20;99.90;;;;;;4957672;28;20493;-84
2021/01/05 01:43:14;;;;;;;9.40;6.13;;;3.20;99.90;;;;;;4958064;28;20031;-83
2021/01/05 01:45:40;;;;;;;10.68;6.07;;;3.30;99.90;;;;;;4957540;28;20524;-84
2021/01/05 01:48:08;;;;;;;14.57;7.28;;;3.20;99.90;;;;;;4941958;28;20113;-83
2021/01/05 01:50:35;;;;;;;8.43;5.50;;;3.10;99.90;;;;;;4975044;28;20489;-84
2021/01/05 01:53:07;;;;;;;6.63;4.80;;;3.20;99.90;;;;;;4941816;28;20035;-83
2021/01/05 01:55:54;;;;;;;6.72;5.55;;;3.20;99.90;;;;;;4957085;28;20143;-83
2021/01/05 01:58:41;;;;;;;8.43;5.95;;;3.20;99.90;;;;;;4956628;28;20031;-85
2021/01/05 02:01:25;;;;;;;7.07;5.20;;;3.20;99.90;;;;;;4957975;28;20035;-84
2021/01/05 02:04:28;;;;;;;10.38;5.40;;;3.20;99.90;;;;;;4957418;28;20030;-82
2021/01/05 02:07:06;;;;;;;10.05;5.93;;;3.20;99.90;;;;;;4957419;28;20027;-84
2021/01/05 02:09:34;;;;;;;7.47;4.85;;;3.20;99.90;;;;;;4974570;28;20101;-85
2021/01/05 02:12:43;;;;;;;8.43;5.30;;;3.20;99.90;;;;;;4957580;28;20033;-85
2021/01/05 02:15:15;;;;;;;11.00;6.45;;;3.20;99.90;;;;;;4957557;28;20027;-83
2021/01/05 02:17:58;;;;;;;9.93;6.47;;;3.20;99.90;;;;;;4974821;28;20085;-83
2021/01/05 02:20:33;;;;;;;8.68;6.43;;;3.20;99.90;;;;;;4974814;28;20082;-84
2021/01/05 02:23:25;;;;;;;7.80;6.13;;;3.20;99.90;;;;;;4957655;28;20101;-84
2021/01/05 02:25:55;;;;;;;7.30;5.88;;;3.10;99.90;;;;;;4957363;28;20066;-84
2021/01/05 02:28:26;;;;;;;10.43;6.88;;;3.20;99.90;;;;;;4957072;28;20051;-87
2021/01/05 02:31:00;;;;;;;10.52;6.47;;;3.20;99.90;;;;;;4957781;28;20040;-84
2021/01/05 02:33:40;;;;;;;11.10;6.88;;;3.10;99.90;;;;;;4974764;28;20023;-83
2021/01/05 02:36:39;;;;;;;11.43;6.82;;;3.10;99.90;;;;;;4957495;28;20114;-83
2021/01/05 02:39:37;;;;;;;9.60;6.90;;;3.10;99.90;;;;;;4957392;28;20093;-83
2021/01/05 02:42:27;;;;;;;15.32;7.90;;;3.20;99.90;;;;;;4965750;28;20023;-82
2021/01/05 02:45:10;;;;;;;11.85;7.68;;;3.20;99.90;;;;;;4987132;28;20065;-83
2021/01/05 02:47:39;;;;;;;11.48;7.00;;;3.20;99.90;;;;;;4975946;28;20102;-84
2021/01/05 02:50:14;;;;;;;13.05;8.25;;;3.20;99.90;;;;;;4958981;28;20038;-83
2021/01/05 02:53:19;;;;;;;16.77;7.68;;;3.20;99.90;;;;;;4975075;28;20043;-83
2021/01/05 02:56:03;;;;;;;8.98;6.28;;;3.10;99.90;;;;;;4915816;28;20101;-83
2021/01/05 02:58:53;;;;;;;9.30;6.53;;;3.10;99.90;;;;;;4957053;28;20034;-83
2021/01/05 03:01:24;;;;;;;11.07;6.80;;;3.20;99.90;;;;;;4956736;28;20026;-83
2021/01/05 03:03:50;;;;;;;9.95;7.63;;;3.10;99.90;;;;;;4974749;28;20038;-83
2021/01/05 03:06:28;;;;;;;9.15;6.75;;;3.20;99.90;;;;;;4941201;28;20388;-83
2021/01/05 03:09:23;;;;;;;8.07;6.50;;;3.20;99.90;;;;;;4957241;28;20116;-83
2021/01/05 03:12:02;;;;;;;;;;;3.10;99.90;;;;;;4961434;28;20023;-82
2021/01/05 03:14:51;;;;;;;9.63;6.95;;;3.10;99.90;;;;;;4961786;28;19914;-83
2021/01/05 03:17:36;;;;;;;10.57;7.45;;;3.10;99.90;;;;;;4979431;28;20102;-82
2021/01/05 03:20:51;;;;;;;10.23;7.18;;;3.10;99.90;;;;;;4963179;28;20023;-83
2021/01/05 03:23:18;;;;;;;9.50;7.20;;;3.10;99.90;;;;;;4956972;28;20039;-83
2021/01/05 03:25:48;;;;;;;9.85;7.40;;;3.10;99.90;;;;;;4964723;28;20114;-83
2021/01/05 03:28:20;;;;;;;11.18;7.70;;;3.20;99.90;;;;;;4964900;28;20054;-83
2021/01/05 03:31:04;;;;;;;10.50;7.60;;;3.10;99.90;;;;;;4963003;28;20027;-84
2021/01/05 03:33:30;;;;;;;10.63;7.35;;;3.10;99.90;;;;;;4977641;28;20085;-84
2021/01/05 03:35:55;;;;;;;12.45;7.72;;;3.10;99.90;;;;;;4945702;28;20031;-84
2021/01/05 03:38:21;;;;;;;11.35;7.25;;;3.20;99.90;;;;;;4945995;28;20027;-84
2021/01/05 03:40:47;;;;;;;12.45;7.85;;;3.20;99.90;;;;;;4960549;28;20039;-84
2021/01/05 03:43:12;;;;;;;10.68;7.55;;;3.20;99.90;;;;;;4960414;28;20038;-84
2021/01/05 03:45:38;;;;;;;12.02;8.30;;;3.30;99.90;;;;;;4943936;28;20041;-84
2021/01/05 03:48:04;;;;;;;12.10;8.00;;;3.20;99.90;;;;;;4960336;28;20058;-84
2021/01/05 03:50:29;;;;;;;11.10;7.75;;;3.20;99.90;;;;;;4964841;28;20457;-86
2021/01/05 03:52:55;;;;;;;10.20;7.57;;;3.20;99.90;;;;;;4967530;28;20041;-83
2021/01/05 03:55:21;;;;;;;10.93;8.05;;;3.20;99.90;;;;;;4949923;28;20133;-82
2021/01/05 03:57:46;;;;;;;11.05;8.38;;;3.20;99.90;;;;;;4944831;28;20432;-82
2021/01/05 04:00:25;;;;;;;11.82;7.70;;;3.20;99.90;;;;;;4959496;28;20397;-83
2021/01/05 04:02:52;;;;;;;11.65;7.68;;;3.20;99.90;;;;;;4977064;28;20480;-84
2021/01/05 04:05:18;;;;;;;10.07;7.30;;;3.20;99.90;;;;;;4943745;28;20031;-85
2021/01/05 04:07:44;;;;;;;11.02;7.80;;;3.20;99.90;;;;;;4959688;28;20100;-83
2021/01/05 04:10:11;;;;;;;11.98;8.00;;;3.20;99.90;;;;;;4959806;28;20525;-83
2021/01/05 04:12:37;;;;;;;13.70;7.97;;;3.30;99.90;;;;;;4959741;28;20037;-84
2021/01/05 04:15:09;;;;;;;9.77;7.55;;;3.20;99.90;;;;;;4976744;28;20114;-84
2021/01/05 04:17:35;;;;;;;10.35;7.63;;;3.20;99.90;;;;;;4959320;28;20031;-84
2021/01/05 04:20:01;;;;;;;9.30;6.72;;;3.30;99.90;;;;;;4943795;28;20069;-84
2021/01/05 04:22:26;;;;;;;9.73;7.25;;;3.20;99.90;;;;;;4976205;28;20414;-84
2021/01/05 04:24:52;;;;;;;9.80;7.28;;;3.30;99.90;;;;;;4943123;28;20034;-84
2021/01/05 04:27:18;;;;;;;10.93;6.85;;;3.20;99.90;;;;;;4943042;28;20571;-83
2021/01/05 04:29:43;;;;;;;11.15;7.80;;;3.30;99.90;;;;;;4959012;28;20110;-82
2021/01/05 04:32:10;;;;;;;12.70;8.13;;;3.30;99.90;;;;;;4959356;28;20034;-83
2021/01/05 04:34:36;;;;;;;10.23;8.23;;;3.30;99.90;;;;;;4958967;28;20074;-82
2021/01/05 04:37:02;;;;;;;10.68;7.82;;;3.30;99.90;;;;;;4958883;28;20550;-83
2021/01/05 04:39:27;;;;;;;11.93;7.57;;;3.30;99.90;;;;;;4959045;28;20031;-84
2021/01/05 04:42:13;;;;;;;10.68;7.75;;;3.30;99.90;;;;;;4959112;28;20035;-83
2021/01/05 04:45:08;;;;;;;10.13;7.43;;;3.30;99.90;;;;;;4958786;28;20121;-84
2021/01/05 04:48:12;;;;;;;12.77;7.47;;;3.30;99.90;;;;;;4959072;28;20496;-83
2021/01/05 04:50:48;;;;;;;9.07;7.47;;;3.30;99.90;;;;;;4958805;28;20274;-85
2021/01/05 04:53:26;;;;;;;12.43;8.18;;;3.20;99.90;;;;;;4959012;28;20023;-84
2021/01/05 04:55:58;;;;;;;10.88;7.50;;;3.30;99.90;;;;;;4958994;28;20045;-84
2021/01/05 04:58:29;;;;;;;8.93;6.93;;;3.30;99.90;;;;;;4959096;28;20031;-83
2021/01/05 05:00:55;;;;;;;10.55;7.25;;;3.40;99.90;;;;;;4958535;28;20031;-83
2021/01/05 05:03:54;;;;;;;10.52;7.28;;;3.40;99.90;;;;;;4958429;28;20130;-84
2021/01/05 05:06:35;;;;;;;9.43;6.93;;;3.40;99.90;;;;;;4958874;28;20027;-83
2021/01/05 05:09:07;;;;;;;10.23;7.38;;;3.30;99.90;;;;;;4975824;28;20027;-83
2021/01/05 05:12:10;;;;;;;11.00;7.65;;;3.40;99.90;;;;;;4976003;28;20027;-83
2021/01/05 05:15:10;;;;;;;11.10;8.13;;;3.40;99.90;;;;;;4958719;28;20038;-83
2021/01/05 05:18:13;;;;;;;14.80;7.45;;;3.40;99.90;;;;;;4976089;28;20334;-82
2021/01/05 05:21:04;;;;;;;11.23;7.93;;;3.40;99.90;;;;;;4973567;28;20026;-90
2021/01/05 05:23:38;;;;;;;10.25;7.30;;;3.40;99.90;;;;;;4970782;28;20095;-83
2021/01/05 05:26:23;;;;;;;9.13;8.00;;;3.40;99.90;;;;;;4958555;28;20027;-83
2021/01/05 05:29:12;;;;;;;10.63;8.00;;;3.40;99.90;;;;;;4958248;28;20042;-83
2021/01/05 05:31:38;;;;;;;14.18;8.38;;;3.30;99.90;;;;;;4947663;28;20270;-83
2021/01/05 05:34:23;;;;;;;12.35;7.68;;;3.40;99.90;;;;;;4941141;28;20049;-83
2021/01/05 05:37:22;;;;;;;10.55;7.80;;;3.40;99.90;;;;;;4943006;28;20034;-83
2021/01/05 05:40:10;;;;;;;9.45;6.95;;;3.30;99.90;;;;;;4958203;28;20031;-83
2021/01/05 05:43:05;;;;;;;11.90;8.30;;;3.30;99.90;;;;;;4976841;28;20051;-83
2021/01/05 05:45:43;;;;;;;10.75;8.02;;;3.30;99.90;;;;;;4951369;28;20035;-83
2021/01/05 05:48:36;;;;;;;11.45;7.72;;;3.40;99.90;;;;;;4974293;28;20026;-82
2021/01/05 05:51:06;;;;;;;12.57;8.07;;;3.50;99.90;;;;;;4957588;28;20052;-83
2021/01/05 05:53:45;;;;;;;8.60;7.00;;;3.40;99.90;;;;;;4957612;28;20022;-83
2021/01/05 05:56:14;;;;;;;11.23;8.38;;;3.50;99.90;;;;;;4977766;28;20026;-83
2021/01/05 05:58:53;;;;;;;10.98;8.18;;;3.40;99.90;;;;;;4959659;28;20098;-83
2021/01/05 06:01:36;;;;;;;10.77;8.18;;;3.30;99.90;;;;;;4975240;28;20113;-84
2021/01/05 06:04:03;;;;;;;13.02;8.55;;;3.40;99.90;;;;;;4971887;28;20045;-84
2021/01/05 06:06:30;;;;;;;10.80;7.50;;;3.30;99.90;;;;;;4957847;28;20433;-83
2021/01/05 06:08:56;;;;;;;10.73;8.20;;;3.30;99.90;;;;;;4957645;28;20027;-83
2021/01/05 06:11:21;;;;;;;11.68;8.50;;;3.40;99.90;;;;;;4942031;28;20082;-83
2021/01/05 06:13:47;;;;;;;11.63;8.10;;;3.40;99.90;;;;;;4941601;28;20038;-83
2021/01/05 06:16:13;;;;;;;13.95;8.65;;;3.40;99.90;;;;;;4958147;28;20031;-83
2021/01/05 06:18:38;;;;;;;9.80;7.43;;;3.40;99.90;;;;;;4974639;28;20027;-83
2021/01/05 06:21:05;;;;;;;13.60;8.52;;;3.40;99.90;;;;;;4958119;28;20370;-83
2021/01/05 06:23:30;;;;;;;11.63;7.45;;;3.30;99.90;;;;;;4942520;28;20031;-83
2021/01/05 06:25:56;;;;;;;12.68;8.88;;;3.40;99.90;;;;;;4962512;28;20027;-84
2021/01/05 06:28:22;;;;;;;14.40;8.38;;;3.40;99.90;;;;;;4960947;28;20531;-83
2021/01/05 06:30:47;;;;;;;9.90;7.25;;;3.30;99.90;;;;;;4958423;28;20532;-84
2021/01/05 06:33:14;;;;;;;11.30;7.85;;;3.40;99.90;;;;;;4942856;28;20035;-83
2021/01/05 06:35:39;;;;;;;11.27;8.07;;;3.40;99.90;;;;;;4960593;28;20054;-83
2021/01/05 06:38:05;;;;;;;12.80;8.63;;;3.40;99.90;;;;;;4943565;28;20385;-84
2021/01/05 06:40:31;;;;;;;11.50;8.32;;;3.40;99.90;;;;;;4942419;28;20577;-84
2021/01/05 06:42:56;;;;;;;13.68;8.43;;;3.40;99.90;;;;;;4975395;28;20481;-84
2021/01/05 06:45:30;;;;;;;14.82;8.38;;;3.40;99.90;;;;;;4943029;28;20035;-84
2021/01/05 06:47:56;;;;;;;14.63;8.40;;;3.40;99.90;;;;;;4961238;28;20110;-84
2021/01/05 06:50:25;;;;;;;10.98;8.80;;;3.40;99.90;;;;;;4978319;28;20081;-83
2021/01/05 06:52:51;;;;;;;11.98;8.82;;;3.30;99.90;;;;;;4961258;28;20123;-83
2021/01/05 06:55:17;;;;;;;12.25;8.73;;;3.40;99.90;;;;;;4978185;28;20035;-83
2021/01/05 06:57:43;;;;;;;16.00;9.20;;;3.30;99.90;;;;;;4961466;28;20027;-83
2021/01/05 07:00:16;;;;;;;13.68;8.98;;;3.30;99.90;;;;;;4979134;28;20377;-83
2021/01/05 07:02:41;;;;;;;11.30;8.13;;;3.40;99.90;;;;;;4960976;28;20082;-83
2021/01/05 07:05:07;;;;;;;13.57;8.77;;;3.50;99.90;;;;;;4960857;28;20060;-83
2021/01/05 07:07:33;;;;;;;11.38;8.50;;;3.40;99.90;;;;;;4961003;28;20093;-83
2021/01/05 07:09:59;;;;;;;12.10;9.02;;;3.40;99.90;;;;;;4960641;28;20461;-82
2021/01/05 07:12:24;;;;;;;13.82;9.27;;;3.40;99.90;;;;;;4944937;28;20035;-82
2021/01/05 07:14:50;;;;;;;13.40;8.93;;;3.40;99.90;;;;;;4947238;28;20030;-87
2021/01/05 07:17:16;;;;;;;11.40;8.05;;;3.40;99.90;;;;;;4966242;28;20031;-83
2021/01/05 07:19:41;;;;;;;11.63;8.40;;;3.40;99.90;;;;;;4964220;28;20034;-83
2021/01/05 07:22:07;;;;;;;13.77;8.93;;;3.40;99.90;;;;;;4945351;28;20498;-83
2021/01/05 07:24:33;;;;;;;13.68;8.68;;;3.40;99.90;;;;;;4962071;28;20098;-84
2021/01/05 07:26:58;;;;;;;13.02;8.68;;;3.40;99.90;;;;;;4976212;28;20082;-84
2021/01/05 07:29:24;;;;;;;14.25;8.30;;;3.50;99.90;;;;;;4960765;28;20046;-84
2021/01/05 07:31:51;;;;;;;15.13;8.98;;;3.50;99.90;;;;;;4960323;28;20030;-84
2021/01/05 07:34:17;;;;;;;15.07;9.93;;;3.50;99.90;;;;;;4977641;28;20058;-84
2021/01/05 07:36:50;;;;;;;15.93;9.00;;;3.60;99.90;;;;;;4977616;28;20102;-84
2021/01/05 07:39:30;;;;;;;14.60;9.15;;;3.50;99.90;;;;;;4960641;28;20027;-83
2021/01/05 07:42:28;;;;;;;14.15;9.60;;;3.50;99.90;;;;;;4978680;28;20034;-84
2021/01/05 07:44:56;;;;;;;12.93;9.40;;;3.50;99.90;;;;;;4967386;28;20054;-89
2021/01/05 07:47:25;;;;;;;19.20;9.80;;;3.50;99.90;;;;;;4962338;28;20385;-84
2021/01/05 07:49:51;;;;;;;17.92;10.82;;;3.50;99.90;;;;;;4977797;28;20054;-84
2021/01/05 07:52:19;;;;;;;17.05;9.68;;;3.50;99.90;;;;;;4944969;28;20107;-84
2021/01/05 07:54:45;;;;;;;15.40;10.68;;;3.50;99.90;;;;;;4977407;28;20066;-84
2021/01/05 07:57:10;;;;;;;16.58;10.38;;;3.50;99.90;;;;;;4929915;28;20075;-83
2021/01/05 07:59:36;;;;;;;15.95;9.88;;;3.50;99.90;;;;;;4963843;28;20031;-83
2021/01/05 08:02:02;;;;;;;17.33;10.50;;;3.60;99.90;;;;;;4967778;28;20041;-86
2021/01/05 08:04:27;;;;;;;16.77;10.30;;;3.60;99.90;;;;;;4932734;28;20042;-84
2021/01/05 08:06:53;;;;;;;18.65;10.95;;;3.70;99.90;;;;;;4929982;28;20058;-84
2021/01/05 08:09:18;;;;;;;17.42;11.13;;;3.60;99.90;;;;;;4944796;28;20465;-84
2021/01/05 08:11:44;;;;;;;15.80;10.32;;;3.70;99.90;;;;;;4944673;28;20035;-84
2021/01/05 08:14:10;;;;;;;16.88;10.23;;;3.70;99.90;;;;;;4928120;28;20485;-85
2021/01/05 08:16:35;;;;;;;18.00;10.30;;;3.70;99.90;;;;;;4944126;28;20031;-84
2021/01/05 08:19:01;;;;;;;16.48;10.10;;;3.60;99.90;;;;;;4960219;28;20486;-85
2021/01/05 08:21:28;;;;;;;16.83;9.80;;;3.60;99.90;;;;;;4928549;28;20040;-83
2021/01/05 08:23:54;;;;;;;18.67;10.75;;;3.80;99.90;;;;;;4960429;28;20037;-83
2021/01/05 08:26:20;;;;;;;17.13;10.05;;;3.70;99.90;;;;;;4944116;28;20049;-84
2021/01/05 08:28:46;;;;;;;14.07;10.18;;;3.70;99.90;;;;;;4977942;28;20037;-83
2021/01/05 08:31:13;;;;;;;16.10;10.35;;;3.70;99.90;;;;;;4977816;28;20050;-84
2021/01/05 08:33:39;;;;;;;16.65;9.93;;;3.70;99.90;;;;;;4943998;28;20568;-84
2021/01/05 08:36:06;;;;;;;14.00;8.98;;;3.70;99.90;;;;;;4959432;28;20023;-84
2021/01/05 08:38:31;;;;;;;15.38;9.57;;;3.80;99.90;;;;;;4959285;28;20031;-84
2021/01/05 08:40:57;;;;;;;15.30;9.85;;;3.80;99.90;;;;;;4943291;28;20034;-84
2021/01/05 08:43:23;;;;;;;16.63;9.80;;;3.70;99.90;;;;;;4958985;28;20117;-83
2021/01/05 08:45:48;;;;;;;12.55;9.18;;;3.80;99.90;;;;;;4942617;28;20058;-84
2021/01/05 08:48:14;;;;;;;15.00;9.48;;;3.80;99.90;;;;;;4975509;28;20031;-85
2021/01/05 08:50:39;;;;;;;12.52;8.90;;;3.90;99.90;;;;;;4959282;28;20041;-84
2021/01/05 08:53:07;;;;;;;17.98;9.70;;;3.90;99.90;;;;;;4975654;28;20034;-85
2021/01/05 08:55:38;;;;;;;15.48;9.25;;;3.80;99.90;;;;;;4960204;28;20034;-85
2021/01/05 08:58:05;;;;;;;15.07;9.45;;;3.80;99.90;;;;;;4959144;28;20031;-84
2021/01/05 09:00:30;;;;;;;13.38;8.48;;;3.80;99.90;;;;;;4976488;28;20031;-85
2021/01/05 09:02:56;;;;;;;17.13;9.52;;;3.80;99.90;;;;;;4959430;28;20030;-85
2021/01/05 09:05:23;;;;;;;15.82;9.77;;;3.80;99.90;;;;;;4975155;28;20038;-85
2021/01/05 09:07:49;;;;;;;12.68;9.30;;;3.80;99.90;;;;;;4945177;28;20085;-84
2021/01/05 09:10:22;;;;;;;14.48;8.73;;;3.80;99.90;;;;;;4950831;28;20476;-85
2021/01/05 09:12:47;;;;;;;14.85;9.68;;;3.80;99.90;;;;;;4967327;28;20094;-84
2021/01/05 09:15:15;;;;;;;14.75;9.50;;;3.80;99.90;;;;;;4963828;28;20085;-85
2021/01/05 09:17:51;;;;;;;13.27;9.30;;;3.80;99.90;;;;;;4959095;28;20097;-85
2021/01/05 09:20:23;;;;;;;16.17;9.48;;;3.90;99.90;;;;;;4958526;28;20029;-85
2021/01/05 09:22:50;;;;;;;13.45;8.75;;;3.80;99.90;;;;;;4958883;28;20445;-85
2021/01/05 09:25:16;;;;;;;14.27;9.45;;;3.80;99.90;;;;;;4958257;28;20089;-84
2021/01/05 09:27:43;;;;;;;13.75;8.95;;;3.80;99.90;;;;;;4990741;28;20064;-85
2021/01/05 09:30:13;;;;;;;29.88;9.88;;;3.80;99.90;;;;;;4958538;28;20118;-85
2021/01/05 09:32:39;;;;;;;14.00;9.35;;;3.90;99.90;;;;;;4975793;28;20022;-84
2021/01/05 09:35:06;;;;;;;15.68;9.60;;;3.90;99.90;;;;;;4958690;28;20504;-85
2021/01/05 09:37:35;;;;;;;12.35;8.18;;;3.90;99.90;;;;;;4975844;28;20037;-84
2021/01/05 09:40:00;;;;;;;12.73;8.35;;;4.00;99.90;;;;;;4957737;28;20118;-84
2021/01/05 09:42:29;;;;;;;11.07;8.15;;;3.90;99.90;;;;;;4942528;28;20059;-84
2021/01/05 09:44:59;;;;;;;10.68;7.88;;;3.90;99.90;;;;;;4942724;28;20034;-85
2021/01/05 09:47:25;;;;;;;12.52;8.57;;;3.90;99.90;;;;;;4958938;28;20027;-84
2021/01/05 09:49:53;;;;;;;11.23;7.45;;;3.90;99.90;;;;;;4958535;28;20034;-84
2021/01/05 09:52:19;;;;;;;12.43;6.85;;;3.90;99.90;;;;;;4957948;28;20077;-86
2021/01/05 09:54:48;;;;;;;16.38;8.43;;;3.90;99.90;;;;;;4974073;28;20444;-84
2021/01/05 09:57:18;;;;;;;13.05;8.48;;;3.90;99.90;;;;;;4974282;28;20087;-84
2021/01/05 09:59:47;;;;;;;11.43;7.97;;;3.90;99.90;;;;;;4943752;28;20466;-82
2021/01/05 10:02:13;;;;;;;14.27;8.45;;;3.80;99.90;;;;;;4966997;28;20030;-85
2021/01/05 10:04:39;;;;;;;14.25;8.23;;;3.90;99.90;;;;;;4984052;28;20034;-84
2021/01/05 10:07:05;;;;;;;10.77;7.43;;;3.90;99.90;;;;;;4946091;28;20035;-84
2021/01/05 10:09:36;;;;;;;14.68;8.35;;;3.90;99.90;;;;;;4957932;28;20023;-85
2021/01/05 10:12:04;;;;;;;16.10;9.75;;;4.00;99.90;;;;;;4958296;28;20031;-84
2021/01/05 10:14:33;;;;;;;13.00;8.05;;;3.90;99.90;;;;;;4957521;28;20042;-83
2021/01/05 10:17:01;;;;;;;12.23;8.23;;;4.00;99.90;;;;;;4958966;28;20037;-84
2021/01/05 10:19:27;;;;;;;13.43;8.63;;;3.90;99.90;;;;;;4974973;28;20031;-83
2021/01/05 10:21:54;;;;;;;15.85;9.35;;;3.90;99.90;;;;;;4942493;28;20134;-83
2021/01/05 10:24:23;;;;;;;15.27;8.63;;;3.90;99.90;;;;;;4959419;28;20035;-85
2021/01/05 10:26:53;;;;;;;14.00;9.20;;;3.80;99.90;;;;;;4958886;28;20062;-84
2021/01/05 10:29:20;;;;;;;14.48;9.02;;;3.80;99.90;;;;;;4958424;28;20027;-84
2021/01/05 10:31:49;;;;;;;14.13;8.18;;;3.90;99.90;;;;;;4957248;28;20105;-83
2021/01/05 10:34:18;;;;;;;15.68;8.02;;;4.00;99.90;;;;;;4958121;28;20169;-84
2021/01/05 10:36:44;;;;;;;14.60;8.30;;;3.90;99.90;;;;;;4966501;28;20027;-83
2021/01/05 10:39:14;;;;;;;11.95;8.32;;;4.00;99.90;;;;;;4972406;28;20034;-85
2021/01/05 10:41:44;;;;;;;15.80;9.85;;;4.10;99.90;;;;;;4962724;28;20396;-84
2021/01/05 10:44:12;;;;;;;13.77;9.18;;;4.10;99.90;;;;;;4981661;28;20058;-84
2021/01/05 10:46:38;;;;;;;12.95;8.30;;;4.20;99.90;;;;;;4958453;28;20031;-84
2021/01/05 10:49:04;;;;;;;11.48;6.60;;;4.10;99.90;;;;;;4957585;28;20041;-83
2021/01/05 10:51:31;;;;;;;11.88;8.05;;;4.10;99.90;;;;;;4944533;29;20066;-85
2021/01/05 10:53:56;;;;;;;12.48;7.80;;;4.00;99.90;;;;;;4938004;29;20448;-85
2021/01/05 10:56:22;;;;;;;9.68;7.60;;;4.00;99.90;;;;;;4938194;29;20032;-84
2021/01/05 10:58:48;;;;;;;12.38;8.10;;;4.10;99.90;;;;;;4950233;28;20472;-86
2021/01/05 11:01:13;;;;;;;16.52;9.73;;;4.00;99.90;;;;;;4973978;28;20038;-88
2021/01/05 11:03:39;;;;;;;15.73;8.73;;;3.90;99.90;;;;;;4925773;28;20035;-85
2021/01/05 11:06:06;;;;;;;13.70;9.10;;;3.90;99.90;;;;;;4943233;28;20480;-85
2021/01/05 11:08:33;;;;;;;17.40;9.35;;;3.80;99.90;;;;;;4975581;28;20384;-85
2021/01/05 11:11:02;;;;;;;15.30;8.80;;;3.80;99.90;;;;;;4957150;28;20034;-85
2021/01/05 11:13:28;;;;;;;15.02;9.05;;;3.90;99.90;;;;;;4974745;28;20058;-85
2021/01/05 11:15:53;;;;;;;13.30;8.60;;;3.90;99.90;;;;;;4941350;28;20039;-85
2021/01/05 11:18:19;;;;;;;14.10;8.80;;;3.90;99.90;;;;;;4941379;28;20399;-85
2021/01/05 11:20:45;;;;;;;14.57;8.55;;;3.90;99.90;;;;;;4957400;28;20035;-85
2021/01/05 11:23:11;;;;;;;16.35;8.60;;;3.90;99.90;;;;;;4940975;28;20094;-85
2021/01/05 11:25:37;;;;;;;13.02;8.32;;;4.00;99.90;;;;;;4974256;28;20472;-85
2021/01/05 11:28:04;;;;;;;12.68;8.73;;;4.00;99.90;;;;;;4974390;28;20047;-85
2021/01/05 11:30:30;;;;;;;11.07;7.75;;;4.00;99.90;;;;;;4957682;28;20039;-84
2021/01/05 11:32:56;;;;;;;12.75;7.40;;;4.00;99.90;;;;;;4959516;28;20027;-85
2021/01/05 11:35:22;;;;;;;9.82;6.97;;;4.00;99.90;;;;;;4978711;28;20562;-85
2021/01/05 11:37:48;;;;;;;12.32;7.63;;;4.00;99.90;;;;;;4947862;28;20542;-85
2021/01/05 11:40:15;;;;;;;10.70;7.70;;;4.00;99.90;;;;;;4931319;28;20081;-84
2021/01/05 11:42:41;;;;;;;9.43;6.95;;;4.10;99.90;;;;;;4962322;28;20031;-84
2021/01/05 11:45:09;;;;;;;10.35;7.13;;;4.00;99.90;;;;;;4985835;28;20062;-84
2021/01/05 11:47:35;;;;;;;10.77;7.30;;;4.00;99.90;;;;;;4950926;29;20058;-84
2021/01/05 11:50:03;;;;;;;8.45;6.57;;;3.90;99.90;;;;;;4966495;29;20101;-84
2021/01/05 11:52:30;;;;;;;11.38;7.35;;;4.00;99.90;;;;;;4948865;29;20046;-85
2021/01/05 11:54:56;;;;;;;11.70;7.45;;;4.00;99.90;;;;;;4948763;29;20039;-85
2021/01/05 11:57:22;;;;;;;11.77;7.43;;;3.90;99.90;;;;;;4962283;29;20039;-86
2021/01/05 11:59:47;;;;;;;9.50;6.18;;;3.90;99.90;;;;;;4943133;29;20108;-85
2021/01/05 12:02:13;;;;;;;9.32;6.60;;;4.00;99.90;;;;;;4958520;29;20034;-84
2021/01/05 12:04:39;;;;;;;11.18;6.78;;;3.90;99.90;;;;;;4942942;29;20038;-85
2021/01/05 12:07:08;;;;;;;8.63;5.95;;;3.90;99.90;;;;;;4942043;29;20519;-87
2021/01/05 12:09:34;;;;;;;8.95;6.82;;;4.00;99.90;;;;;;4943205;29;20028;-85
2021/01/05 12:12:01;;;;;;;10.88;7.20;;;4.00;99.90;;;;;;4942572;29;20032;-85
2021/01/05 12:14:28;;;;;;;9.90;6.53;;;4.00;99.90;;;;;;4957655;29;20046;-85
2021/01/05 12:16:57;;;;;;;10.32;6.53;;;4.00;99.90;;;;;;4957542;29;20046;-85
2021/01/05 12:31:50;;;;;;;9.55;5.53;;;3.90;99.90;;;;;;5600374;23;20056;-92
2021/01/05 12:34:19;;;;;;;7.97;6.03;;;4.00;99.90;;;;;;4924149;29;20032;-87
2021/01/05 12:36:45;;;;;;;6.72;5.63;;;4.10;99.90;;;;;;4924293;29;20090;-88
2021/01/05 12:39:27;;;;;;;7.80;5.75;;;4.00;99.90;;;;;;4924674;29;20115;-89
2021/01/05 12:41:55;;;;;;;8.52;5.80;;;4.00;99.90;;;;;;4924511;29;20055;-88
2021/01/05 12:44:24;;;;;;;6.47;5.05;;;4.10;99.90;;;;;;4942465;29;20051;-88
2021/01/05 12:46:51;;;;;;;8.43;5.90;;;4.10;99.90;;;;;;4929975;29;20072;-89
2021/01/05 12:49:18;;;;;;;7.68;5.25;;;4.10;99.90;;;;;;4947910;29;20043;-89
2021/01/05 12:51:49;;;;;;;7.85;5.45;;;4.10;99.90;;;;;;4927900;29;20366;-89
2021/01/05 12:54:26;;;;;;;6.45;5.40;;;4.00;99.90;;;;;;4928650;29;20036;-89
2021/01/05 12:57:04;;;;;;;8.45;5.28;;;4.00;99.90;;;;;;4931928;29;20103;-90
2021/01/05 12:59:30;;;;;;;7.57;5.32;;;4.00;99.90;;;;;;4917825;29;20158;-90
2021/01/05 13:02:15;;;;;;;8.35;5.90;;;4.00;99.90;;;;;;4946462;29;20036;-90
2021/01/05 13:04:45;;;;;;;8.57;6.32;;;4.10;99.90;;;;;;4922999;29;20059;-89
2021/01/05 13:07:11;;;;;;;8.30;6.00;;;4.00;99.90;;;;;;4923913;29;20027;-88
2021/01/05 13:09:39;;;;;;;9.50;5.95;;;4.00;99.90;;;;;;4945282;29;20024;-88
2021/01/05 13:12:05;;;;;;;10.15;6.05;;;4.00;99.90;;;;;;4949171;29;20051;-89
2021/01/05 13:14:32;;;;;;;11.35;6.82;;;4.00;99.90;;;;;;4930959;29;20462;-89
2021/01/05 13:17:07;;;;;;;9.05;5.95;;;4.00;99.90;;;;;;4941419;29;20469;-89
2021/01/05 13:19:32;;;;;;;;;;;4.00;99.90;;;;;;4923837;29;20092;-88